Time;durP1;ratioP1;P1;durP2;ratioP2;P2;SDS_P1;SDS_P2;PMS_P1;PMS_P2;Temp;Humidity;BMP_temperature;BMP_pressure;BME280_temperature;BME280_humidity;BME280_pressure;Samples;Min_cycle;Max_cycle;Signal;HPM_P1;HPM_P2
2022/06/16 00:01:55;;;;;;;2.35;2.13;;;;;;;20.52;44.14;96683.38;6245659;23;20051;-76
2022/06/16 00:04:24;;;;;;;4.30;2.70;;;;;;;20.48;44.29;96680.38;6251542;23;20031;-76
2022/06/16 00:06:53;;;;;;;3.97;2.03;;;;;;;20.44;44.39;96673.16;6264121;22;20526;-76
2022/06/16 00:09:23;;;;;;;2.35;1.80;;;;;;;20.39;44.48;96676.56;6259782;23;20048;-76
2022/06/16 00:11:50;;;;;;;2.33;2.10;;;;;;;20.33;44.48;96677.50;6246411;23;20048;-76
2022/06/16 00:14:18;;;;;;;4.10;1.92;;;;;;;20.28;44.79;96674.78;6246124;22;20024;-76
2022/06/16 00:16:46;;;;;;;2.88;2.15;;;;;;;20.24;44.98;96678.97;6245877;22;20405;-76
2022/06/16 00:19:14;;;;;;;3.22;2.42;;;;;;;20.21;45.04;96676.81;6245933;23;20074;-76
2022/06/16 00:21:41;;;;;;;4.35;2.30;;;;;;;20.17;45.30;96669.31;6245785;23;20099;-76
2022/06/16 00:24:09;;;;;;;2.65;2.17;;;;;;;20.14;45.40;96661.88;6245753;23;20035;-76
2022/06/16 00:26:38;;;;;;;2.60;2.13;;;;;;;20.13;45.55;96662.91;6245701;22;20472;-76
2022/06/16 00:29:06;;;;;;;3.55;2.20;;;;;;;20.10;45.33;96660.75;6245803;23;20099;-76
2022/06/16 00:31:37;;;;;;;2.33;1.85;;;;;;;20.08;45.49;96667.34;6245642;23;20027;-76
2022/06/16 00:34:05;;;;;;;3.90;2.35;;;;;;;20.06;45.05;96669.41;6245862;23;20067;-76
2022/06/16 00:36:34;;;;;;;2.50;2.08;;;;;;;20.04;45.10;96663.56;6245252;22;20483;-76
2022/06/16 00:39:01;;;;;;;3.38;2.38;;;;;;;20.00;45.18;96668.53;6245696;23;20024;-76
2022/06/16 00:41:29;;;;;;;2.63;2.20;;;;;;;19.98;45.26;96675.91;6245037;23;20087;-76
2022/06/16 00:44:00;;;;;;;3.35;2.08;;;;;;;19.95;45.51;96671.09;6245593;23;20031;-76
2022/06/16 00:46:29;;;;;;;2.53;2.10;;;;;;;19.89;45.31;96672.03;6245616;22;20093;-76
2022/06/16 00:49:01;;;;;;;3.22;2.05;;;;;;;19.84;45.21;96669.31;6245148;23;20017;-76
2022/06/16 00:51:33;;;;;;;2.38;2.03;;;;;;;19.82;45.48;96669.56;6245330;22;20020;-76
2022/06/16 00:54:03;;;;;;;;;;;;;;;19.84;45.16;96674.63;6245999;23;20103;-76
2022/06/16 00:56:30;;;;;;;3.83;2.58;;;;;;;19.80;45.34;96668.19;6244813;22;19963;-76
2022/06/16 00:59:02;;;;;;;3.42;1.88;;;;;;;19.79;45.56;96672.69;6245527;23;20023;-76
2022/06/16 01:01:31;;;;;;;2.42;2.22;;;;;;;19.79;45.60;96674.50;6258949;23;20024;-77
2022/06/16 01:06:45;;;;;;;3.40;2.40;;;;;;;19.72;45.87;96680.78;6260759;22;20051;-76
2022/06/16 01:09:15;;;;;;;3.42;2.05;;;;;;;19.71;46.00;96678.34;6247321;23;20126;-76
2022/06/16 01:14:53;;;;;;;2.60;1.88;;;;;;;19.60;46.34;96677.34;6245993;23;20020;-77
2022/06/16 01:17:31;;;;;;;2.55;2.13;;;;;;;19.53;46.46;96669.56;6245378;22;20047;-76
2022/06/16 01:20:11;;;;;;;3.38;2.50;;;;;;;19.48;46.59;96676.56;6244580;22;20055;-76
2022/06/16 01:23:04;;;;;;;2.63;2.05;;;;;;;19.44;46.90;96680.72;6245331;23;20024;-76
2022/06/16 01:25:39;;;;;;;;;;;;;;;19.41;46.41;96670.63;6245608;22;20526;-76
2022/06/16 01:28:18;;;;;;;4.53;2.38;;;;;;;19.32;47.04;96672.84;6245365;23;20343;-76
2022/06/16 01:30:54;;;;;;;4.00;2.40;;;;;;;19.27;47.25;96670.91;6244787;23;20026;-76
2022/06/16 01:33:26;;;;;;;2.85;2.25;;;;;;;19.22;47.07;96662.06;6245357;23;20066;-76
2022/06/16 01:36:04;;;;;;;3.13;2.50;;;;;;;19.18;47.09;96659.09;6245221;22;20103;-76
2022/06/16 01:38:37;;;;;;;3.05;2.30;;;;;;;19.15;47.03;96651.63;6245697;23;20059;-76
2022/06/16 01:41:13;;;;;;;3.50;1.90;;;;;;;19.16;46.92;96649.81;6244412;23;20091;-76
2022/06/16 01:43:44;;;;;;;3.00;2.30;;;;;;;19.16;46.86;96647.97;6245806;22;20099;-76
2022/06/16 01:46:18;;;;;;;2.42;2.13;;;;;;;19.21;46.71;96644.59;6245728;22;20032;-76
2022/06/16 01:48:51;;;;;;;4.13;2.20;;;;;;;19.22;46.53;96644.38;6246062;22;20476;-76
2022/06/16 01:51:25;;;;;;;2.28;2.08;;;;;;;19.22;46.57;96641.72;6245367;23;20024;-76
2022/06/16 01:53:58;;;;;;;2.80;2.38;;;;;;;19.20;46.77;96645.63;6244994;23;20020;-76
2022/06/16 01:56:31;;;;;;;2.75;1.90;;;;;;;19.18;47.08;96639.81;6245662;22;20056;-76
2022/06/16 01:59:02;;;;;;;3.95;2.15;;;;;;;19.21;47.19;96636.69;6247550;23;20040;-76
2022/06/16 02:01:39;;;;;;;2.55;2.10;;;;;;;19.23;46.87;96642.53;6247566;23;20095;-75
2022/06/16 02:04:12;;;;;;;2.10;1.90;;;;;;;19.22;46.96;96630.34;6247356;23;20034;-75
2022/06/16 02:06:45;;;;;;;3.97;2.05;;;;;;;19.22;46.90;96633.81;6247299;22;20103;-75
2022/06/16 02:09:16;;;;;;;3.30;2.10;;;;;;;19.22;46.81;96636.44;6247217;23;20099;-75
2022/06/16 02:11:46;;;;;;;6.88;2.10;;;;;;;19.20;46.84;96637.69;6246641;23;20024;-76
2022/06/16 02:14:19;;;;;;;3.38;2.17;;;;;;;19.18;46.89;96634.50;6245346;23;20379;-76
2022/06/16 02:16:50;;;;;;;2.60;2.20;;;;;;;19.19;47.16;96642.19;6252856;22;20052;-76
2022/06/16 02:19:22;;;;;;;2.97;2.30;;;;;;;19.20;47.13;96643.81;6265257;23;20020;-75
2022/06/16 02:21:51;;;;;;;2.85;2.20;;;;;;;19.22;47.08;96639.09;6260416;23;20020;-76
2022/06/16 02:24:26;;;;;;;2.47;2.22;;;;;;;19.22;47.02;96635.63;6248956;23;20020;-76
2022/06/16 04:58:28;;;;;;;2.85;2.58;;;;;;;18.57;51.10;96676.31;6236087;23;20028;-80
2022/06/16 05:12:31;;;;;;;2.50;2.30;;;;;;;18.78;50.67;96681.00;6211429;22;20027;-81
2022/06/16 05:38:54;;;;;;;4.05;2.65;;;;;;;19.35;51.44;96707.56;6226759;22;20035;-75
2022/06/16 05:41:26;;;;;;;4.60;2.53;;;;;;;19.45;51.26;96714.09;6245656;23;20081;-77
2022/06/16 05:43:54;;;;;;;2.78;2.45;;;;;;;19.53;51.32;96706.59;6251256;23;20273;-78
2022/06/16 05:46:24;;;;;;;3.47;2.58;;;;;;;19.61;51.48;96713.34;6253793;22;20153;-79
2022/06/16 05:48:52;;;;;;;4.22;2.72;;;;;;;19.68;51.39;96711.38;6248782;23;20017;-79
2022/06/16 05:51:22;;;;;;;4.50;3.15;;;;;;;19.78;51.31;96709.97;6249227;23;20055;-78
2022/06/16 06:34:05;;;;;;;3.60;2.83;;;;;;;21.02;48.67;96716.97;6273809;22;20198;-80
2022/06/16 06:37:07;;;;;;;4.22;2.90;;;;;;;21.14;48.73;96727.44;6273886;22;20001;-81
2022/06/16 06:43:14;;;;;;;3.38;2.67;;;;;;;21.34;48.44;96724.22;6274311;22;20020;-80
2022/06/16 07:28:09;;;;;;;;;;;;;;;22.95;43.45;96735.00;6273813;22;19922;-82
2022/06/16 07:54:20;;;;;;;3.78;2.75;;;;;;;23.62;41.51;96751.31;6295699;22;20015;-81
2022/06/16 08:14:43;;;;;;;6.15;3.00;;;;;;;24.18;42.38;96762.13;6305544;22;20008;-80
2022/06/16 08:23:20;;;;;;;3.80;3.38;;;;;;;24.41;42.27;96770.69;6291078;22;20250;-82
2022/06/16 08:31:46;;;;;;;3.60;2.88;;;;;;;24.65;41.93;96771.75;6303462;22;20034;-80
2022/06/16 08:37:07;;;;;;;4.13;2.90;;;;;;;24.79;41.86;96777.34;6305847;22;20044;-81
2022/06/16 08:39:54;;;;;;;4.63;2.58;;;;;;;24.88;42.01;96782.94;6277092;22;20038;-85
2022/06/16 08:42:42;;;;;;;3.30;3.03;;;;;;;24.94;41.63;96795.22;6306599;22;20026;-81
2022/06/16 09:18:31;;;;;;;5.13;3.05;;;;;;;26.02;40.74;96811.75;6255787;22;20016;-80
2022/06/16 09:36:30;;;;;;;11.68;3.30;;;;;;;26.41;37.99;96818.19;6266303;22;20066;-80
2022/06/16 10:16:46;;;;;;;4.82;3.15;;;;;;;26.99;37.31;96828.19;6234573;22;20015;-84
2022/06/16 10:50:04;;;;;;;4.50;3.08;;;;;;;27.39;36.38;96842.28;6239915;22;20015;-81
2022/06/16 11:59:08;;;;;;;3.35;3.05;;;;;;;28.29;33.59;96876.34;6269907;22;20016;-85
2022/06/16 12:14:24;;;;;;;4.93;3.20;;;;;;;28.44;33.31;96890.63;6215103;23;20050;-84
2022/06/16 12:17:14;;;;;;;7.40;3.35;;;;;;;28.39;32.88;96896.09;6215096;23;20016;-86
2022/06/16 12:20:08;;;;;;;4.65;3.65;;;;;;;28.33;32.13;96892.66;6139569;23;20031;-84
2022/06/16 12:23:18;;;;;;;3.13;2.88;;;;;;;28.27;32.40;96894.63;6213406;23;20019;-86
2022/06/16 12:26:12;;;;;;;4.40;2.75;;;;;;;28.24;33.16;96900.56;6267606;22;20031;-81
2022/06/16 13:06:47;;;;;;;3.63;2.65;;;;;;;28.29;32.91;96889.75;6261362;22;20031;-83
2022/06/16 13:09:23;;;;;;;4.63;3.05;;;;;;;28.33;33.24;96892.66;6275448;22;20020;-84
2022/06/16 13:12:11;;;;;;;3.38;2.92;;;;;;;28.35;32.78;96885.91;6252091;22;20000;-86
2022/06/16 13:14:59;;;;;;;3.55;2.67;;;;;;;28.35;32.20;96885.91;6275267;22;20032;-85
2022/06/16 13:17:39;;;;;;;4.73;3.17;;;;;;;28.35;32.12;96895.84;6273293;22;20000;-85
2022/06/16 13:20:15;;;;;;;3.22;2.80;;;;;;;28.32;32.90;96891.88;6256224;22;20095;-78
2022/06/16 13:22:49;;;;;;;5.10;3.10;;;;;;;28.32;32.39;96886.50;6247965;23;20074;-79
2022/06/16 13:25:42;;;;;;;5.43;2.83;;;;;;;28.34;33.25;96887.03;6247769;23;20028;-77
2022/06/16 13:28:19;;;;;;;4.18;3.45;;;;;;;28.35;32.75;96891.28;6248181;23;20034;-78
2022/06/16 13:31:22;;;;;;;4.95;3.40;;;;;;;28.38;33.71;96881.84;6247441;23;20022;-78
2022/06/16 13:34:11;;;;;;;4.45;3.13;;;;;;;28.39;31.53;96894.19;6249005;23;20100;-77
2022/06/16 13:36:47;;;;;;;5.32;3.10;;;;;;;28.37;31.34;96892.91;6253402;23;20055;-78
2022/06/16 13:39:56;;;;;;;4.18;2.63;;;;;;;28.37;31.35;96888.31;6248748;23;20024;-77
2022/06/16 13:42:44;;;;;;;3.65;2.80;;;;;;;28.37;31.92;96892.91;6097212;23;20054;-77
2022/06/16 13:45:38;;;;;;;6.03;2.67;;;;;;;28.34;30.67;96891.59;6237943;23;20055;-77
2022/06/16 13:48:18;;;;;;;3.10;2.50;;;;;;;28.32;31.19;96891.09;6248231;23;20091;-77
2022/06/16 13:50:48;;;;;;;3.65;2.65;;;;;;;28.32;31.10;96897.25;6247356;23;20016;-78
2022/06/16 13:53:20;;;;;;;5.70;2.33;;;;;;;28.32;31.03;96896.44;6247320;23;20091;-78
2022/06/16 13:55:56;;;;;;;5.15;2.60;;;;;;;28.33;31.29;96896.13;6248013;23;20027;-78
2022/06/16 13:58:27;;;;;;;3.10;2.40;;;;;;;28.33;31.42;96893.47;6247630;23;20055;-78
2022/06/16 14:01:16;;;;;;;6.40;2.67;;;;;;;28.31;31.65;96890.25;6247173;23;20067;-78
2022/06/16 14:03:55;;;;;;;4.97;2.10;;;;;;;28.32;30.55;96913.34;6247258;23;20468;-79
2022/06/16 14:06:26;;;;;;;4.25;2.53;;;;;;;28.27;30.27;96894.63;6247499;23;20020;-77
2022/06/16 14:08:57;;;;;;;3.63;2.30;;;;;;;28.25;30.24;96891.44;6247681;23;20066;-78
2022/06/16 14:11:27;;;;;;;4.28;2.15;;;;;;;28.25;30.73;96902.16;6247620;23;20028;-78
2022/06/16 14:14:17;;;;;;;3.50;2.90;;;;;;;28.25;30.16;96888.75;6247055;23;20389;-78
2022/06/16 14:16:48;;;;;;;7.95;2.08;;;;;;;28.24;30.48;96899.78;6238469;23;20052;-78
2022/06/16 14:19:27;;;;;;;3.58;2.30;;;;;;;28.22;30.13;96891.22;6246795;23;20095;-79
2022/06/16 14:22:01;;;;;;;3.25;2.22;;;;;;;28.20;29.80;96896.84;6246826;23;20035;-78
2022/06/16 14:24:51;;;;;;;11.07;2.65;;;;;;;28.24;29.96;96911.28;6247292;23;20052;-79
2022/06/16 14:27:25;;;;;;;2.33;2.17;;;;;;;28.23;29.80;96914.25;6247599;23;20020;-79
2022/06/16 14:29:54;;;;;;;3.90;2.60;;;;;;;28.21;29.63;96917.25;6247209;23;20024;-79
2022/06/16 14:32:27;;;;;;;4.93;2.33;;;;;;;28.19;29.75;96916.72;6246421;23;20535;-79
2022/06/16 14:35:03;;;;;;;5.50;2.03;;;;;;;28.21;29.95;96922.59;6247012;23;20023;-78
2022/06/16 14:37:36;;;;;;;3.25;2.40;;;;;;;28.19;28.66;96919.41;6247096;23;20024;-78
2022/06/16 14:40:10;;;;;;;10.27;2.58;;;;;;;28.18;28.99;96917.00;6246381;23;20020;-79
2022/06/16 14:42:41;;;;;;;4.10;2.00;;;;;;;28.15;28.53;96918.38;6247219;23;20048;-79
2022/06/16 14:45:20;;;;;;;1.90;1.80;;;;;;;28.12;28.87;96925.13;6249134;23;20039;-77
2022/06/16 14:47:55;;;;;;;2.13;1.95;;;;;;;28.10;28.25;96926.50;6266728;23;20055;-78
2022/06/16 14:50:26;;;;;;;5.50;1.95;;;;;;;28.07;28.25;96927.06;6264827;23;20329;-79
2022/06/16 14:52:57;;;;;;;2.50;2.05;;;;;;;28.05;27.75;96932.69;6252349;23;20051;-78
2022/06/16 14:55:31;;;;;;;3.17;1.90;;;;;;;28.03;28.52;96936.75;6249866;23;20020;-78
2022/06/16 14:58:04;;;;;;;3.08;2.30;;;;;;;28.01;28.87;96934.38;6248575;23;20530;-78
2022/06/16 15:00:40;;;;;;;3.33;2.08;;;;;;;27.99;29.52;96922.31;6246622;23;20028;-78
2022/06/16 15:03:12;;;;;;;4.10;2.28;;;;;;;27.94;29.47;96929.38;6246995;23;20246;-79
2022/06/16 15:05:43;;;;;;;6.68;2.47;;;;;;;27.92;29.95;96926.16;6247501;23;20020;-78
2022/06/16 15:08:19;;;;;;;2.63;2.40;;;;;;;27.92;29.47;96930.72;6246474;23;20471;-79
2022/06/16 15:10:47;;;;;;;2.35;2.15;;;;;;;27.89;29.60;96926.72;6245933;23;20510;-78
2022/06/16 15:13:14;;;;;;;3.03;2.35;;;;;;;27.88;30.33;96925.13;6246590;23;20099;-78
2022/06/16 15:15:42;;;;;;;4.60;2.70;;;;;;;27.83;30.05;96925.16;6246130;23;20016;-79
2022/06/16 15:18:10;;;;;;;3.85;2.40;;;;;;;27.79;30.62;96924.16;6246479;23;20214;-79
2022/06/16 15:20:40;;;;;;;3.78;2.60;;;;;;;27.78;30.84;96932.47;6245626;23;20074;-78
2022/06/16 15:23:10;;;;;;;5.20;2.22;;;;;;;27.77;30.37;96929.00;6245564;23;20027;-79
2022/06/16 15:25:41;;;;;;;2.10;1.98;;;;;;;27.75;30.01;96931.16;6245347;23;20074;-79
2022/06/16 15:28:18;;;;;;;2.28;2.08;;;;;;;27.73;30.30;96927.94;6245311;23;20095;-78
2022/06/16 15:30:49;;;;;;;4.80;2.35;;;;;;;27.71;30.04;96925.56;6245232;23;20024;-79
2022/06/16 15:36:14;;;;;;;2.88;2.35;;;;;;;27.71;31.14;96928.22;6247369;23;20075;-78
2022/06/16 15:38:45;;;;;;;5.90;2.40;;;;;;;27.71;31.39;96928.22;6248051;23;20103;-78
2022/06/16 15:41:22;;;;;;;7.13;2.63;;;;;;;27.71;31.16;96930.91;6246929;23;20459;-78
2022/06/16 15:43:51;;;;;;;4.00;2.13;;;;;;;27.70;31.28;96923.97;6247897;23;20027;-78
2022/06/16 15:46:21;;;;;;;4.82;2.40;;;;;;;27.69;30.78;96926.91;6247718;23;20055;-78
2022/06/16 15:48:52;;;;;;;3.03;2.28;;;;;;;27.67;31.21;96924.50;6247429;23;20020;-78
2022/06/16 15:51:20;;;;;;;3.53;2.47;;;;;;;27.65;30.87;96921.31;6247451;23;20020;-79
2022/06/16 15:53:49;;;;;;;3.85;2.17;;;;;;;27.65;31.35;96915.16;6247595;23;20039;-77
2022/06/16 15:56:24;;;;;;;4.30;2.45;;;;;;;27.66;30.88;96930.97;6247927;23;20060;-78
2022/06/16 15:59:00;;;;;;;4.85;2.40;;;;;;;27.66;30.64;96928.28;6247472;23;20047;-78
2022/06/16 16:01:30;;;;;;;2.83;2.35;;;;;;;27.64;29.88;96929.63;6247280;23;20024;-78
2022/06/16 16:04:02;;;;;;;4.20;2.50;;;;;;;27.62;29.91;96931.81;6247434;23;20023;-78
2022/06/16 16:06:32;;;;;;;4.53;2.55;;;;;;;27.61;30.17;96930.22;6247489;23;20519;-78
2022/06/16 16:09:01;;;;;;;6.85;2.42;;;;;;;27.60;29.65;96934.78;6247049;23;20052;-79
2022/06/16 16:11:30;;;;;;;4.40;2.22;;;;;;;27.59;29.14;96932.38;6246827;23;20076;-78
2022/06/16 16:14:02;;;;;;;2.47;2.17;;;;;;;27.57;28.82;96929.19;6247686;23;20043;-78
2022/06/16 16:16:33;;;;;;;3.28;2.22;;;;;;;27.53;29.13;96927.06;6247208;23;20043;-78
2022/06/16 16:19:07;;;;;;;3.20;2.53;;;;;;;27.54;29.64;96922.50;6246938;23;20024;-78
2022/06/16 16:21:37;;;;;;;4.55;2.30;;;;;;;27.54;29.32;96925.19;6252099;22;20048;-78
2022/06/16 16:24:06;;;;;;;3.05;2.40;;;;;;;27.53;29.28;96929.75;6246812;23;20495;-78
2022/06/16 16:26:34;;;;;;;3.05;2.10;;;;;;;27.51;29.46;96926.56;6247162;23;20024;-78
2022/06/16 16:29:03;;;;;;;2.28;2.08;;;;;;;27.48;29.68;96927.09;6247088;23;20102;-78
2022/06/16 16:31:40;;;;;;;2.25;1.92;;;;;;;27.48;29.09;96939.72;6269120;23;20031;-77
2022/06/16 16:34:10;;;;;;;2.50;2.30;;;;;;;27.46;28.96;96934.66;6271557;23;20500;-79
2022/06/16 16:36:55;;;;;;;2.10;1.83;;;;;;;27.44;29.49;96936.00;6267727;23;20024;-77
2022/06/16 16:39:25;;;;;;;4.90;2.25;;;;;;;27.42;29.44;96938.97;6250541;23;20082;-78
2022/06/16 16:45:28;;;;;;;2.88;2.67;;;;;;;27.42;29.48;96944.34;6196288;23;20024;-79
2022/06/16 16:48:04;;;;;;;2.85;2.08;;;;;;;27.42;29.52;96938.97;6247270;23;20081;-78
2022/06/16 16:50:34;;;;;;;2.20;2.00;;;;;;;27.41;29.38;96942.72;6246636;23;20055;-78
2022/06/16 16:53:08;;;;;;;4.38;2.00;;;;;;;27.42;29.59;96944.34;6247296;23;20035;-78
2022/06/16 16:55:35;;;;;;;4.60;2.15;;;;;;;27.43;29.36;96953.16;6246630;23;20460;-79
2022/06/16 16:58:06;;;;;;;4.25;2.38;;;;;;;27.41;29.46;96958.78;6246215;23;20103;-78
2022/06/16 17:00:37;;;;;;;3.85;2.33;;;;;;;27.39;29.15;96954.81;6248163;23;20099;-78
2022/06/16 17:03:06;;;;;;;4.50;2.13;;;;;;;27.38;29.06;96963.94;6247190;23;20024;-78
2022/06/16 17:05:35;;;;;;;3.65;2.13;;;;;;;27.35;28.58;96953.75;6246614;23;20020;-78
2022/06/16 17:08:03;;;;;;;4.05;2.20;;;;;;;27.32;28.95;96955.13;6246538;23;20094;-79
2022/06/16 17:10:30;;;;;;;2.20;1.73;;;;;;;27.29;29.36;96967.22;6251882;23;20024;-78
2022/06/16 17:13:01;;;;;;;2.15;1.92;;;;;;;27.29;29.16;96969.09;6247224;23;20031;-78
2022/06/16 17:15:30;;;;;;;2.90;2.10;;;;;;;27.29;29.10;96964.53;6246900;23;20016;-78
2022/06/16 17:18:00;;;;;;;3.65;2.40;;;;;;;27.28;29.55;96968.28;6247911;23;20065;-78
2022/06/16 17:20:29;;;;;;;4.22;1.88;;;;;;;27.29;29.74;96977.13;6245760;23;20024;-78
2022/06/16 17:22:58;;;;;;;2.78;2.25;;;;;;;27.29;29.38;96982.50;6246539;23;20482;-78
2022/06/16 17:25:25;;;;;;;4.35;2.33;;;;;;;27.27;29.10;96980.09;6246818;23;20115;-78
2022/06/16 17:27:53;;;;;;;5.18;2.05;;;;;;;27.23;28.99;96983.59;6246388;23;20027;-78
2022/06/16 17:30:23;;;;;;;3.83;2.75;;;;;;;27.19;29.31;96987.88;6246022;23;20055;-78
2022/06/16 17:33:00;;;;;;;1.98;1.88;;;;;;;27.16;29.97;96993.78;6247219;23;20090;-78
2022/06/16 17:35:32;;;;;;;2.58;2.10;;;;;;;27.13;29.83;96995.97;6246517;23;20094;-78
2022/06/16 17:38:02;;;;;;;4.35;2.20;;;;;;;27.13;29.65;96995.97;6246777;23;20024;-78
2022/06/16 17:40:30;;;;;;;2.95;1.90;;;;;;;27.12;29.76;96994.34;6246056;23;20108;-78
2022/06/16 17:43:00;;;;;;;2.80;2.20;;;;;;;27.12;30.12;96999.69;6247674;23;20099;-78
2022/06/16 17:45:29;;;;;;;2.90;2.00;;;;;;;27.12;30.17;96999.69;6246044;23;20024;-77
2022/06/16 17:47:58;;;;;;;3.03;1.90;;;;;;;27.09;29.88;96997.59;6246112;23;20020;-78
2022/06/16 17:50:25;;;;;;;2.42;1.83;;;;;;;27.08;29.78;97001.34;6245772;23;20047;-78
2022/06/16 18:01:11;;;;;;;2.88;1.88;;;;;;;27.01;30.09;97005.41;6250112;23;20055;-78
2022/06/16 18:03:39;;;;;;;2.80;2.15;;;;;;;26.98;30.23;97016.66;6247974;23;20344;-78
2022/06/16 18:06:09;;;;;;;4.15;2.28;;;;;;;26.96;30.09;97022.31;6246349;23;20399;-78
2022/06/16 18:08:41;;;;;;;3.42;2.50;;;;;;;26.92;29.94;97027.41;6246481;23;20070;-79
2022/06/16 18:11:12;;;;;;;2.42;1.65;;;;;;;26.90;29.90;97023.41;6246076;23;20048;-78
2022/06/16 18:13:42;;;;;;;4.28;1.92;;;;;;;26.85;29.65;97023.41;6247628;23;20058;-78
2022/06/16 18:16:11;;;;;;;2.80;2.08;;;;;;;26.82;29.86;97021.31;6246027;23;20051;-78
2022/06/16 18:18:40;;;;;;;2.33;2.00;;;;;;;26.77;29.70;97027.50;6246157;23;20030;-78
2022/06/16 18:21:15;;;;;;;2.85;2.17;;;;;;;26.74;29.75;97029.91;6245127;23;20031;-78
2022/06/16 18:23:44;;;;;;;2.47;2.25;;;;;;;26.71;29.74;97037.41;6245922;23;20064;-77
2022/06/16 18:26:19;;;;;;;3.33;1.83;;;;;;;26.68;29.75;97034.50;6245870;23;20052;-78
2022/06/16 18:28:50;;;;;;;2.38;1.77;;;;;;;26.63;30.30;97034.50;6245717;23;20392;-77
2022/06/16 18:31:17;;;;;;;5.07;2.72;;;;;;;26.61;30.24;97040.16;6245640;23;20016;-78
2022/06/16 18:33:46;;;;;;;2.80;1.85;;;;;;;26.57;30.29;97039.09;6246019;23;20024;-78
2022/06/16 18:36:34;;;;;;;2.38;1.65;;;;;;;26.55;30.23;97035.84;6245761;23;20042;-78
2022/06/16 18:39:02;;;;;;;3.47;2.00;;;;;;;26.50;30.45;97033.19;6245702;23;20024;-78
2022/06/16 18:41:31;;;;;;;3.28;2.03;;;;;;;26.46;30.57;97040.19;6245674;23;20020;-78
2022/06/16 18:43:59;;;;;;;2.67;2.20;;;;;;;26.41;30.83;97035.63;6245497;23;20020;-78
2022/06/16 18:46:27;;;;;;;2.50;1.77;;;;;;;26.39;31.08;97039.66;6245775;23;20016;-78
2022/06/16 18:48:55;;;;;;;2.95;2.00;;;;;;;26.36;30.94;97034.84;6244859;23;20099;-78
2022/06/16 18:51:25;;;;;;;3.25;2.03;;;;;;;26.30;31.25;97042.91;6244713;23;20452;-78
2022/06/16 18:53:55;;;;;;;2.10;1.65;;;;;;;26.27;31.06;97037.28;6245361;23;20436;-78
2022/06/16 18:56:22;;;;;;;3.25;2.15;;;;;;;26.22;31.19;97046.13;6245563;23;20099;-78
2022/06/16 18:58:52;;;;;;;5.43;1.75;;;;;;;26.18;31.17;97039.72;6246302;23;20094;-78
2022/06/16 19:01:20;;;;;;;2.92;1.77;;;;;;;26.15;31.22;97050.97;6246748;23;20047;-77
2022/06/16 19:03:49;;;;;;;3.38;1.83;;;;;;;26.12;31.59;97046.16;6247604;23;20448;-78
2022/06/16 19:06:19;;;;;;;2.67;2.10;;;;;;;26.09;31.80;97046.69;6245895;23;20055;-78
2022/06/16 19:08:47;;;;;;;4.10;1.83;;;;;;;26.06;31.79;97047.22;6244814;23;20326;-78
2022/06/16 19:11:17;;;;;;;2.55;1.80;;;;;;;26.01;31.67;97039.22;6244972;23;20820;-78
2022/06/16 19:13:45;;;;;;;4.85;2.47;;;;;;;25.97;32.54;97033.59;6245401;23;20026;-78
2022/06/16 19:16:15;;;;;;;2.67;2.00;;;;;;;25.93;32.51;97037.09;6244576;23;20069;-77
2022/06/16 19:18:46;;;;;;;5.03;2.88;;;;;;;25.87;32.97;97034.41;6245292;23;20074;-77
2022/06/16 20:45:02;;;;;;;2.20;2.00;;;;;;;22.74;38.99;97113.56;6257110;22;20075;-79
2022/06/16 20:47:47;;;;;;;2.85;2.38;;;;;;;22.67;39.19;97128.91;6275223;22;20016;-80
2022/06/16 21:59:07;;;;;;;6.07;2.70;;;;;;;21.42;41.20;97204.19;6260789;22;20039;-78
2022/06/16 22:01:51;;;;;;;4.43;3.03;;;;;;;21.35;41.44;97214.91;6243650;23;20071;-79
2022/06/16 22:04:29;;;;;;;3.33;2.40;;;;;;;21.34;41.52;97215.97;6243232;23;20064;-79
2022/06/16 22:20:48;;;;;;;5.05;2.38;;;;;;;21.23;41.56;97219.44;6256859;22;20000;-81
2022/06/16 22:23:36;;;;;;;3.03;2.47;;;;;;;21.23;41.52;97221.28;6274235;22;20052;-79
2022/06/16 22:26:19;;;;;;;2.65;2.45;;;;;;;21.25;41.84;97235.13;6274096;22;20023;-79
2022/06/16 22:28:58;;;;;;;4.40;2.53;;;;;;;21.28;41.93;97235.47;6273867;23;20004;-79
2022/06/16 22:31:36;;;;;;;3.50;2.65;;;;;;;21.35;42.47;97244.09;6273107;22;20008;-79
2022/06/16 22:42:54;;;;;;;3.53;2.72;;;;;;;21.23;42.81;97253.94;6273600;22;20016;-79
2022/06/16 22:45:42;;;;;;;3.80;2.97;;;;;;;21.13;42.66;97259.03;6273740;22;20050;-79
2022/06/16 22:50:49;;;;;;;6.45;3.80;;;;;;;20.90;43.78;97265.16;6264137;22;20200;-78
2022/06/16 22:56:30;;;;;;;9.93;4.03;;;;;;;20.70;44.23;97270.78;6271707;22;20068;-79
2022/06/16 23:02:17;;;;;;;6.55;3.45;;;;;;;20.50;44.71;97263.94;6266750;22;19942;-79
2022/06/16 23:13:12;;;;;;;5.05;2.50;;;;;;;20.12;44.97;97270.44;6236788;22;20020;-79
2022/06/16 23:15:55;;;;;;;3.05;2.53;;;;;;;20.06;44.98;97267.91;6273814;22;20043;-78
2022/06/16 23:23:54;;;;;;;6.03;2.83;;;;;;;19.87;45.38;97270.59;6248923;22;20004;-80
2022/06/16 23:43:53;;;;;;;3.38;1.77;;;;;;;19.50;45.46;97289.16;6255661;22;20012;-79
2022/06/16 23:54:54;;;;;;;2.40;1.85;;;;;;;19.45;45.97;97288.19;6267952;22;20070;-80
